Terminal Aerodrome Forecast
Issued by NWS

Home | Current Version | Previous Version | Text Only | Print | Product List | Glossary On
Versions: 1 2 3 4 5 6 7 8 9 10 11 12 13 14 15 16 17 18 19 20 21 22 23
000
FTUS43 KGRB 151730
TAFRHI
TAF
KRHI 151730Z 1518/1618 29008KT P6SM -SHSN BKN022
     FM160000 VRB03KT P6SM SCT020 BKN080
     FM160600 VRB03KT P6SM BKN040
      TEMPO 1609/1612 BKN025
     FM161200 10006KT P6SM -SN BKN015 OVC025=

USA.gov is the U.S. government's official web portal to all federal, state and local government web resources and services.